createdAt,value
2024-01-19T00:01:34.077Z,8.83
2024-01-19T00:04:02.315Z,8.70
2024-01-19T00:06:30.748Z,9.07
2024-01-19T00:08:59.603Z,8.57
2024-01-19T00:11:28.020Z,9.10
2024-01-19T00:13:56.262Z,10.13
2024-01-19T00:16:25.862Z,10.23
2024-01-19T00:18:54.074Z,8.63
2024-01-19T00:21:22.317Z,8.90
2024-01-19T00:23:51.178Z,8.47
2024-01-19T00:26:20.041Z,10.10
2024-01-19T00:28:49.045Z,8.10
2024-01-19T00:31:17.489Z,8.90
2024-01-19T00:33:47.935Z,7.83
2024-01-19T00:36:17.122Z,9.00
2024-01-19T00:38:45.698Z,10.77
2024-01-19T00:41:14.327Z,8.97
2024-01-19T00:43:43.116Z,9.50
2024-01-19T00:46:11.284Z,9.50
2024-01-19T00:48:41.069Z,9.33
2024-01-19T00:51:11.541Z,10.93
2024-01-19T00:53:39.913Z,10.07
2024-01-19T00:56:10.019Z,10.60
2024-01-19T00:58:40.205Z,11.20
2024-01-19T01:01:08.417Z,10.13
2024-01-19T01:03:36.760Z,9.23
2024-01-19T01:06:05.711Z,8.93
2024-01-19T01:08:37.331Z,9.10
2024-01-19T01:11:05.358Z,9.00
2024-01-19T01:13:34.047Z,8.83
2024-01-19T01:16:02.842Z,8.80
2024-01-19T01:18:31.511Z,8.93
2024-01-19T01:20:59.983Z,8.77
2024-01-19T01:23:28.170Z,8.20
2024-01-19T01:25:57.712Z,8.60
2024-01-19T01:28:25.856Z,8.23
2024-01-19T01:30:54.261Z,8.03
2024-01-19T01:33:23.614Z,8.63
2024-01-19T01:35:52.746Z,9.97
2024-01-19T01:38:21.980Z,10.00
2024-01-19T01:40:50.939Z,10.73
2024-01-19T01:43:24.934Z,9.07
2024-01-19T01:45:53.858Z,9.50
2024-01-19T01:48:24.999Z,10.53
2024-01-19T01:50:54.334Z,10.23
2024-01-19T01:53:23.100Z,9.73
2024-01-19T01:55:52.646Z,9.57
2024-01-19T01:58:23.240Z,8.03
2024-01-19T02:00:54.088Z,7.50
2024-01-19T02:03:22.689Z,7.90
2024-01-19T02:05:51.337Z,8.47
2024-01-19T02:08:19.844Z,8.30
2024-01-19T02:10:48.913Z,8.50
2024-01-19T02:13:18.186Z,7.97
2024-01-19T02:15:48.204Z,8.27
2024-01-19T02:18:16.520Z,7.93
2024-01-19T02:20:44.839Z,9.10
2024-01-19T02:23:15.927Z,9.10
2024-01-19T02:25:45.699Z,8.00
2024-01-19T02:28:14.383Z,8.43
2024-01-19T02:30:43.525Z,8.93
2024-01-19T02:33:12.092Z,9.90
2024-01-19T02:35:40.683Z,10.53
2024-01-19T02:38:08.857Z,10.63
2024-01-19T02:40:37.431Z,9.63
2024-01-19T02:43:07.201Z,9.20
2024-01-19T02:45:35.531Z,9.00
2024-01-19T02:48:03.876Z,9.37
2024-01-19T02:50:32.090Z,9.17
2024-01-19T02:53:00.471Z,9.60
2024-01-19T02:55:28.667Z,8.47
2024-01-19T02:57:57.163Z,8.17
2024-01-19T03:00:26.940Z,7.40
2024-01-19T03:02:55.233Z,7.53
2024-01-19T03:05:23.556Z,7.03
2024-01-19T03:07:51.974Z,6.30
2024-01-19T03:10:20.168Z,5.97
2024-01-19T03:12:48.490Z,6.27
2024-01-19T03:15:16.631Z,5.90
2024-01-19T03:17:46.342Z,6.40
2024-01-19T03:20:14.878Z,5.47
2024-01-19T03:22:43.090Z,5.17
2024-01-19T03:25:11.438Z,5.60
2024-01-19T03:27:39.653Z,5.00
2024-01-19T03:30:08.752Z,5.43
2024-01-19T03:32:37.059Z,5.07
2024-01-19T03:35:06.995Z,5.43
2024-01-19T03:37:35.128Z,5.60
2024-01-19T03:40:04.540Z,5.67
2024-01-19T03:42:32.688Z,5.37
2024-01-19T03:45:01.134Z,7.77
2024-01-19T03:47:30.123Z,5.77
2024-01-19T03:49:58.450Z,5.20
2024-01-19T03:52:28.305Z,5.17
2024-01-19T03:54:56.466Z,4.60
2024-01-19T03:57:24.626Z,5.27
2024-01-19T03:59:52.771Z,4.80
2024-01-19T04:02:20.959Z,4.70
2024-01-19T04:04:49.512Z,6.30
2024-01-19T04:07:18.087Z,4.83
2024-01-19T04:09:47.684Z,5.40
2024-01-19T04:12:17.239Z,5.00
2024-01-19T04:14:47.358Z,5.10
2024-01-19T04:17:15.861Z,4.73
2024-01-19T04:19:44.090Z,5.00
2024-01-19T04:22:12.220Z,5.10
2024-01-19T04:24:40.400Z,4.97
2024-01-19T04:27:10.452Z,5.50
2024-01-19T04:29:38.808Z,5.20
2024-01-19T04:32:07.526Z,5.17
2024-01-19T04:34:35.974Z,5.33
2024-01-19T04:37:04.347Z,5.03
2024-01-19T04:39:32.546Z,5.83
2024-01-19T04:42:00.775Z,5.97
2024-01-19T04:44:30.332Z,5.10
2024-01-19T04:46:58.559Z,5.07
2024-01-19T04:49:26.816Z,5.00
2024-01-19T04:51:55.320Z,6.03
2024-01-19T04:54:23.488Z,4.37
2024-01-19T04:56:51.757Z,4.97
2024-01-19T04:59:19.993Z,5.10
2024-01-19T05:01:49.605Z,5.20
2024-01-19T05:04:17.805Z,4.90
2024-01-19T05:06:46.057Z,5.33
2024-01-19T05:09:15.606Z,5.50
2024-01-19T05:11:43.896Z,4.93
2024-01-19T05:14:12.567Z,5.43
2024-01-19T05:16:40.742Z,4.87
2024-01-19T05:19:10.245Z,6.13
2024-01-19T05:21:38.617Z,4.97
2024-01-19T05:24:07.060Z,4.43
2024-01-19T05:26:35.256Z,5.70
2024-01-19T05:29:03.417Z,6.03
2024-01-19T05:31:31.682Z,4.50
2024-01-19T05:34:00.118Z,4.53
2024-01-19T05:36:29.787Z,3.80
2024-01-19T05:38:58.007Z,3.97
2024-01-19T05:41:26.493Z,3.53
2024-01-19T05:43:54.880Z,4.80
2024-01-19T05:46:22.992Z,3.80
2024-01-19T05:48:51.170Z,3.37
2024-01-19T05:51:20.048Z,4.80
2024-01-19T05:53:49.687Z,3.60
2024-01-19T05:56:17.860Z,3.60
2024-01-19T05:58:46.115Z,3.97
2024-01-19T06:01:14.409Z,3.60
2024-01-19T06:03:43.173Z,3.77
2024-01-19T06:06:11.591Z,3.70
2024-01-19T06:08:39.981Z,3.10
2024-01-19T06:11:09.532Z,4.00
2024-01-19T06:13:37.648Z,4.03
2024-01-19T06:16:05.953Z,3.60
2024-01-19T06:18:35.930Z,3.47
2024-01-19T06:21:04.398Z,4.30
2024-01-19T06:23:32.940Z,4.30
2024-01-19T06:26:01.470Z,3.70
2024-01-19T06:28:30.988Z,4.10
2024-01-19T06:30:59.215Z,4.00
2024-01-19T06:33:27.734Z,4.30
2024-01-19T06:35:56.007Z,3.60
2024-01-19T06:38:24.558Z,3.60
2024-01-19T06:40:53.164Z,4.80
2024-01-19T06:43:21.303Z,4.80
2024-01-19T06:45:51.289Z,3.50
2024-01-19T06:48:19.713Z,3.63
2024-01-19T06:50:48.341Z,5.27
2024-01-19T06:53:17.000Z,4.57
2024-01-19T06:55:45.378Z,3.43
2024-01-19T06:58:13.654Z,4.00
2024-01-19T07:00:41.879Z,4.17
2024-01-19T07:03:11.620Z,3.50
2024-01-19T07:05:43.629Z,3.23
2024-01-19T07:08:12.847Z,3.90
2024-01-19T07:10:41.154Z,3.10
2024-01-19T07:13:09.739Z,4.63
2024-01-19T07:15:38.065Z,3.80
2024-01-19T07:18:06.581Z,3.77
2024-01-19T07:20:36.252Z,4.07
2024-01-19T07:23:04.803Z,4.70
2024-01-19T07:25:32.953Z,4.80
2024-01-19T07:28:01.280Z,4.93
2024-01-19T07:30:29.405Z,4.70
2024-01-19T07:33:06.457Z,4.20
2024-01-19T07:35:39.971Z,3.80
2024-01-19T07:38:08.608Z,4.30
2024-01-19T07:40:36.809Z,5.30
2024-01-19T07:43:05.330Z,4.50
2024-01-19T07:45:33.545Z,3.93
2024-01-19T07:48:00.743Z,3.83
2024-01-19T07:50:29.322Z,3.47
2024-01-19T07:52:58.820Z,4.03
2024-01-19T07:55:26.981Z,4.17
2024-01-19T07:57:55.246Z,3.50
2024-01-19T08:00:23.418Z,3.87
2024-01-19T08:02:51.719Z,3.70
2024-01-19T08:05:20.220Z,4.70
2024-01-19T08:07:48.751Z,4.43
2024-01-19T08:10:19.894Z,3.97
2024-01-19T08:12:48.119Z,4.13
2024-01-19T08:15:16.463Z,4.90
2024-01-19T08:17:44.824Z,4.50
2024-01-19T08:20:13.502Z,5.27
2024-01-19T08:22:41.646Z,4.70
2024-01-19T08:25:11.647Z,4.90
2024-01-19T08:27:43.887Z,4.60
2024-01-19T08:30:13.445Z,4.77
2024-01-19T08:32:41.971Z,4.90
2024-01-19T08:35:10.994Z,6.10
2024-01-19T08:37:40.247Z,5.20
2024-01-19T08:40:10.018Z,4.80
2024-01-19T08:42:38.448Z,5.10
2024-01-19T08:45:09.262Z,5.20
2024-01-19T08:47:38.593Z,4.83
2024-01-19T08:50:08.935Z,4.60
2024-01-19T08:52:37.336Z,4.67
2024-01-19T08:55:06.129Z,4.80
2024-01-19T08:57:34.562Z,4.67
2024-01-19T09:00:05.944Z,4.77
2024-01-19T09:02:36.342Z,4.57
2024-01-19T09:05:06.634Z,4.90
2024-01-19T09:07:34.935Z,5.13
2024-01-19T09:10:04.107Z,5.27
2024-01-19T09:12:32.322Z,5.00
2024-01-19T09:15:00.560Z,4.87
2024-01-19T09:17:28.795Z,5.30
2024-01-19T09:19:58.435Z,4.40
2024-01-19T09:22:28.237Z,4.83
2024-01-19T09:24:56.358Z,5.13
2024-01-19T09:27:24.517Z,5.20
2024-01-19T09:29:52.721Z,6.13
2024-01-19T09:32:21.105Z,6.73
2024-01-19T09:34:49.756Z,5.53
2024-01-19T09:37:19.222Z,5.97
2024-01-19T09:39:47.384Z,5.40
2024-01-19T09:42:23.706Z,5.30
2024-01-19T09:45:02.007Z,5.40
2024-01-19T09:47:37.905Z,5.63
2024-01-19T09:50:07.443Z,5.60
2024-01-19T09:52:50.279Z,10.43
2024-01-19T09:55:21.293Z,5.27
2024-01-19T09:57:50.527Z,5.30
2024-01-19T10:00:20.542Z,5.63
2024-01-19T10:02:50.670Z,5.80
2024-01-19T10:05:20.554Z,5.70
2024-01-19T10:07:54.389Z,5.73
2024-01-19T10:10:22.820Z,4.83
2024-01-19T10:12:51.168Z,7.90
2024-01-19T10:15:19.587Z,5.80
2024-01-19T10:17:48.221Z,6.00
2024-01-19T10:20:17.498Z,5.03
2024-01-19T10:22:45.939Z,6.67
2024-01-19T10:25:16.697Z,6.23
2024-01-19T10:27:47.731Z,6.77
2024-01-19T10:30:19.024Z,5.27
2024-01-19T10:32:49.815Z,6.20
2024-01-19T10:35:19.590Z,6.23
2024-01-19T10:37:48.636Z,6.47
2024-01-19T10:40:27.752Z,5.20
2024-01-19T10:42:58.007Z,5.20
2024-01-19T10:45:28.943Z,5.17
2024-01-19T10:48:00.031Z,5.03
2024-01-19T10:50:29.683Z,5.40
2024-01-19T10:52:59.445Z,4.57
2024-01-19T10:55:30.835Z,4.70
2024-01-19T10:58:13.171Z,4.97
2024-01-19T11:00:43.173Z,5.50
2024-01-19T11:03:11.777Z,4.77
2024-01-19T11:05:40.206Z,4.97
2024-01-19T11:08:08.358Z,4.80
2024-01-19T11:10:37.979Z,4.20
2024-01-19T11:13:10.931Z,4.63
2024-01-19T11:15:45.440Z,4.63
2024-01-19T11:18:15.548Z,4.20
2024-01-19T11:20:43.964Z,4.20
2024-01-19T11:23:12.953Z,4.53
2024-01-19T11:25:59.180Z,4.33
2024-01-19T11:28:36.984Z,3.77
2024-01-19T11:31:14.565Z,4.20
2024-01-19T11:33:43.216Z,3.97
2024-01-19T11:36:12.023Z,4.67
2024-01-19T11:38:50.002Z,4.63
2024-01-19T11:41:49.529Z,3.97
2024-01-19T11:44:44.482Z,3.50
2024-01-19T11:47:40.549Z,4.00
2024-01-19T11:50:11.071Z,4.10
2024-01-19T11:52:41.641Z,4.30
2024-01-19T11:55:39.055Z,3.87
2024-01-19T11:58:43.907Z,4.00
2024-01-19T12:01:14.035Z,3.78
2024-01-19T12:03:43.095Z,4.13
2024-01-19T12:06:11.779Z,3.80
2024-01-19T12:08:40.220Z,3.93
2024-01-19T12:11:10.669Z,4.30
2024-01-19T12:13:48.371Z,5.33
2024-01-19T12:16:24.817Z,4.30
2024-01-19T12:18:56.911Z,5.00
2024-01-19T12:21:26.184Z,4.07
2024-01-19T12:23:56.516Z,3.50
2024-01-19T12:26:25.153Z,4.77
2024-01-19T12:28:54.243Z,3.80
2024-01-19T12:31:25.029Z,3.43
2024-01-19T12:33:54.584Z,3.67
2024-01-19T12:36:27.133Z,4.10
2024-01-19T12:39:12.730Z,3.10
2024-01-19T12:41:41.619Z,4.37
2024-01-19T12:44:10.316Z,6.23
2024-01-19T12:46:48.068Z,5.10
2024-01-19T12:49:16.876Z,4.03
2024-01-19T12:51:45.334Z,3.87
2024-01-19T12:54:16.242Z,3.80
2024-01-19T12:56:45.510Z,3.33
2024-01-19T12:59:17.042Z,4.70
2024-01-19T13:01:49.013Z,3.70
2024-01-19T13:04:17.837Z,4.10
2024-01-19T13:06:46.916Z,3.57
2024-01-19T13:09:17.485Z,3.40
2024-01-19T13:11:45.948Z,3.40
2024-01-19T13:14:15.075Z,3.47
2024-01-19T13:16:56.117Z,3.57
2024-01-19T13:19:24.975Z,3.90
2024-01-19T13:21:56.136Z,3.53
2024-01-19T13:24:26.424Z,4.10
2024-01-19T13:27:02.080Z,3.80
2024-01-19T13:29:30.416Z,3.73
2024-01-19T13:32:00.384Z,3.43
2024-01-19T13:34:29.885Z,3.90
2024-01-19T13:36:58.990Z,3.40
2024-01-19T13:39:28.304Z,4.13
2024-01-19T13:41:56.687Z,4.07
2024-01-19T13:44:25.597Z,3.58
2024-01-19T13:46:54.345Z,5.13
2024-01-19T13:49:24.047Z,3.93
2024-01-19T13:51:52.354Z,3.57
2024-01-19T13:54:20.781Z,3.67
2024-01-19T13:56:49.104Z,3.60
2024-01-19T13:59:17.490Z,3.87
2024-01-19T14:01:47.373Z,3.92
2024-01-19T14:04:16.825Z,4.40
2024-01-19T14:06:47.718Z,5.47
2024-01-19T14:09:16.134Z,4.70
2024-01-19T14:11:47.822Z,5.17
2024-01-19T14:14:17.280Z,4.37
2024-01-19T14:16:45.772Z,4.80
2024-01-19T14:19:14.219Z,4.50
2024-01-19T14:21:42.496Z,5.07
2024-01-19T14:24:12.016Z,3.53
2024-01-19T14:26:41.005Z,4.27
2024-01-19T14:29:08.382Z,4.20
2024-01-19T14:31:36.694Z,4.90
2024-01-19T14:34:04.906Z,5.00
2024-01-19T14:36:33.732Z,4.73
2024-01-19T14:39:01.926Z,3.93
2024-01-19T14:41:34.837Z,5.43
2024-01-19T14:44:04.428Z,4.10
2024-01-19T14:46:34.143Z,5.93
2024-01-19T14:49:03.782Z,5.03
2024-01-19T14:51:32.381Z,4.87
2024-01-19T14:54:02.594Z,5.30
2024-01-19T14:56:32.575Z,5.53
2024-01-19T14:59:00.875Z,4.80
2024-01-19T15:01:29.580Z,5.07
2024-01-19T15:03:57.949Z,5.57
2024-01-19T15:06:25.119Z,5.60
2024-01-19T15:08:53.620Z,5.60
2024-01-19T15:11:21.889Z,5.53
2024-01-19T15:13:53.278Z,7.13
2024-01-19T15:16:23.694Z,5.63
2024-01-19T15:18:51.946Z,5.93
2024-01-19T15:21:20.306Z,6.80
2024-01-19T15:23:48.434Z,6.23
2024-01-19T15:26:18.037Z,5.87
2024-01-19T15:28:46.382Z,6.60
2024-01-19T15:31:22.703Z,5.80
2024-01-19T15:33:51.165Z,6.43
2024-01-19T15:36:19.978Z,6.27
2024-01-19T15:38:48.282Z,6.73
2024-01-19T15:41:23.725Z,7.23
2024-01-19T15:43:51.981Z,6.77
2024-01-19T15:46:25.083Z,7.70
2024-01-19T15:49:02.838Z,7.70
2024-01-19T15:51:34.092Z,7.40
2024-01-19T15:54:03.002Z,8.37
2024-01-19T15:56:37.231Z,7.33
2024-01-19T15:59:07.070Z,7.13
2024-01-19T16:01:39.602Z,7.47
2024-01-19T16:04:08.232Z,7.20
2024-01-19T16:06:36.608Z,7.33
2024-01-19T16:09:05.038Z,7.63
2024-01-19T16:11:35.872Z,7.77
2024-01-19T16:14:04.515Z,6.83
2024-01-19T16:16:33.522Z,7.10
2024-01-19T16:19:04.608Z,7.23
2024-01-19T16:21:32.874Z,8.23
2024-01-19T16:24:01.025Z,8.10
2024-01-19T16:26:29.251Z,7.57
2024-01-19T16:28:57.633Z,8.53
2024-01-19T16:31:25.875Z,9.20
2024-01-19T16:33:54.849Z,9.30
2024-01-19T16:36:25.097Z,12.30
2024-01-19T16:38:53.355Z,10.87
2024-01-19T16:41:21.629Z,10.50
2024-01-19T16:43:50.331Z,10.70
2024-01-19T16:46:21.999Z,10.40
2024-01-19T16:48:50.446Z,10.27
2024-01-19T16:51:18.901Z,10.23
2024-01-19T16:53:48.494Z,10.80
2024-01-19T16:56:16.733Z,11.00
2024-01-19T16:58:45.057Z,11.23
2024-01-19T17:01:13.201Z,11.13
2024-01-19T17:03:44.676Z,11.67
2024-01-19T17:06:13.959Z,11.60
2024-01-19T17:08:44.605Z,10.37
2024-01-19T17:11:14.281Z,11.17
2024-01-19T17:13:42.597Z,10.60
2024-01-19T17:16:12.161Z,9.93
2024-01-19T17:18:41.800Z,10.43
2024-01-19T17:21:10.030Z,10.50
2024-01-19T17:23:39.203Z,9.63
2024-01-19T17:26:07.560Z,9.67
2024-01-19T17:28:38.316Z,9.57
2024-01-19T17:31:06.641Z,10.07
2024-01-19T17:33:36.513Z,10.47
2024-01-19T17:36:13.796Z,10.30
2024-01-19T17:38:43.944Z,9.90
2024-01-19T17:41:12.358Z,9.33
2024-01-19T17:43:42.176Z,8.83
2024-01-19T17:46:11.046Z,8.83
2024-01-19T17:48:39.697Z,10.07
2024-01-19T17:51:08.064Z,10.67
2024-01-19T17:53:36.223Z,9.93
2024-01-19T17:56:04.669Z,9.43
2024-01-19T17:58:32.923Z,9.00
2024-01-19T18:01:03.009Z,8.87
2024-01-19T18:03:31.311Z,9.70
2024-01-19T18:06:00.069Z,9.90
2024-01-19T18:08:30.614Z,7.90
2024-01-19T18:10:59.270Z,8.37
2024-01-19T18:13:27.683Z,8.60
2024-01-19T18:15:55.883Z,8.13
2024-01-19T18:18:31.636Z,9.07
2024-01-19T18:21:04.902Z,8.67
2024-01-19T18:23:34.590Z,8.63
2024-01-19T18:26:03.187Z,7.90
2024-01-19T18:28:31.714Z,7.83
2024-01-19T18:30:59.949Z,8.40
2024-01-19T18:33:29.721Z,8.73
2024-01-19T18:35:58.247Z,7.77
2024-01-19T18:38:26.451Z,8.23
2024-01-19T18:40:54.739Z,8.50
2024-01-19T18:43:23.052Z,9.23
2024-01-19T18:45:51.803Z,7.83
2024-01-19T18:48:20.025Z,7.97
2024-01-19T18:50:49.859Z,8.20
2024-01-19T18:53:18.279Z,8.13
2024-01-19T18:55:51.098Z,7.47
2024-01-19T18:58:19.730Z,8.93
2024-01-19T19:00:48.810Z,8.20
2024-01-19T19:03:17.133Z,8.87
2024-01-19T19:05:45.828Z,8.87
2024-01-19T19:08:16.965Z,9.00
2024-01-19T19:10:45.683Z,7.83
2024-01-19T19:13:14.216Z,9.00
2024-01-19T19:15:42.706Z,8.70
2024-01-19T19:18:14.648Z,8.70
2024-01-19T19:20:43.724Z,9.20
2024-01-19T19:23:12.248Z,9.07
2024-01-19T19:25:41.989Z,8.50
2024-01-19T19:28:10.313Z,9.03
2024-01-19T19:30:38.498Z,8.20
2024-01-19T19:33:06.778Z,8.43
2024-01-19T19:35:34.995Z,8.47
2024-01-19T19:38:03.734Z,8.17
2024-01-19T19:40:32.986Z,9.47
2024-01-19T19:43:05.827Z,8.77
2024-01-19T19:45:35.428Z,9.60
2024-01-19T19:48:05.348Z,9.23
2024-01-19T19:50:33.725Z,9.17
2024-01-19T19:53:01.909Z,8.63
2024-01-19T19:55:30.174Z,10.53
2024-01-19T19:57:58.440Z,9.17
2024-01-19T20:00:28.065Z,8.70
2024-01-19T20:02:56.274Z,9.57
2024-01-19T20:05:25.253Z,9.33
2024-01-19T20:07:53.517Z,8.90
2024-01-19T20:10:21.973Z,8.50
2024-01-19T20:12:50.474Z,9.33
2024-01-19T20:15:19.011Z,8.77
2024-01-19T20:17:49.277Z,8.50
2024-01-19T20:20:19.530Z,10.00
2024-01-19T20:22:48.517Z,9.47
2024-01-19T20:25:16.709Z,8.60
2024-01-19T20:27:45.118Z,7.83
2024-01-19T20:30:14.242Z,8.57
2024-01-19T20:32:42.497Z,7.77
2024-01-19T20:35:12.610Z,8.47
2024-01-19T20:37:43.130Z,9.30
2024-01-19T20:40:13.853Z,7.63
2024-01-19T20:42:42.080Z,7.80
2024-01-19T20:45:13.278Z,8.40
2024-01-19T20:47:41.712Z,7.57
2024-01-19T20:50:11.993Z,8.23
2024-01-19T20:52:40.318Z,8.33
2024-01-19T20:55:09.073Z,7.43
2024-01-19T20:57:37.320Z,8.37
2024-01-19T21:00:07.215Z,8.40
2024-01-19T21:02:35.726Z,8.80
2024-01-19T21:05:06.099Z,8.40
2024-01-19T21:07:36.582Z,7.77
2024-01-19T21:10:06.614Z,7.80
2024-01-19T21:12:37.614Z,8.23
2024-01-19T21:15:10.272Z,8.77
2024-01-19T21:17:40.429Z,7.97
2024-01-19T21:20:10.343Z,7.67
2024-01-19T21:22:40.362Z,8.13
2024-01-19T21:25:09.662Z,7.93
2024-01-19T21:27:40.889Z,7.53
2024-01-19T21:30:11.659Z,7.30
2024-01-19T21:32:40.392Z,6.80
2024-01-19T21:35:09.033Z,8.43
2024-01-19T21:37:37.315Z,7.87
2024-01-19T21:40:09.384Z,6.60
2024-01-19T21:42:44.676Z,6.80
2024-01-19T21:45:14.099Z,7.17
2024-01-19T21:47:43.066Z,7.20
2024-01-19T21:50:12.691Z,6.67
2024-01-19T21:52:42.826Z,7.77
2024-01-19T21:55:13.089Z,6.67
2024-01-19T21:57:41.340Z,7.27
2024-01-19T22:00:12.045Z,8.10
2024-01-19T22:02:47.270Z,6.50
2024-01-19T22:05:56.530Z,7.23
2024-01-19T22:08:26.016Z,7.03
2024-01-19T22:10:56.520Z,8.47
2024-01-19T22:13:24.794Z,7.23
2024-01-19T22:15:53.111Z,7.07
2024-01-19T22:18:21.950Z,7.67
2024-01-19T22:20:50.413Z,8.07
2024-01-19T22:23:18.652Z,6.90
2024-01-19T22:25:46.867Z,7.47
2024-01-19T22:28:16.562Z,7.60
2024-01-19T22:30:45.413Z,6.80
2024-01-19T22:33:13.724Z,6.27
2024-01-19T22:35:42.366Z,6.47
2024-01-19T22:38:12.075Z,8.53
2024-01-19T22:40:40.483Z,8.50
2024-01-19T22:43:14.356Z,6.57
2024-01-19T22:45:46.232Z,7.17
2024-01-19T22:48:15.764Z,7.50
2024-01-19T22:50:44.178Z,8.27
2024-01-19T22:53:12.445Z,7.57
2024-01-19T22:55:40.763Z,6.57
2024-01-19T22:58:09.311Z,6.10
2024-01-19T23:00:37.675Z,7.53
2024-01-19T23:03:07.725Z,7.43
2024-01-19T23:05:35.974Z,7.77
2024-01-19T23:08:04.530Z,6.53
2024-01-19T23:10:32.950Z,8.43
2024-01-19T23:13:01.132Z,5.83
2024-01-19T23:15:30.156Z,8.17
2024-01-19T23:17:58.724Z,6.03
2024-01-19T23:20:28.555Z,7.43
2024-01-19T23:22:57.167Z,6.57
2024-01-19T23:25:30.900Z,6.00
2024-01-19T23:28:07.772Z,5.23
2024-01-19T23:30:36.043Z,7.47
2024-01-19T23:33:05.199Z,8.43
2024-01-19T23:35:35.098Z,6.30
2024-01-19T23:38:03.500Z,7.63
2024-01-19T23:40:31.896Z,8.10
2024-01-19T23:43:00.489Z,8.20
2024-01-19T23:45:28.868Z,6.57
2024-01-19T23:47:57.948Z,6.97
2024-01-19T23:50:26.566Z,7.20
2024-01-19T23:52:56.111Z,5.97
2024-01-19T23:55:24.435Z,8.50
2024-01-19T23:57:52.584Z,6.50
